Aurora, Minnesota
Current Conditions -  °F | °C
As of 11:31 AM on Friday 31 Oct 2014 (Local Time) from KEVM Reporting Station
Clear Clear  
Wind Chill:   Ceiling: Unl
Heat Index:   Visibility: 10mi
Dew Point: -6°   Wind: 3mph
Humidity: 64%   Direction: 30°NNE
Pressure: 30.55"   Gusts: NA
Location:  47.53°N, 92.24°W
Report Text: KEVM 311631Z AUTO 03003KT 10SM CLR 00/M06 A3055 RMK AO2
Loading
Personal Weather Stations






























Interactive Weather Map New forecast layout! Learn more

10-Day Weather Forecast

Advertisements
Track Severe Weather on mobile